sensor_id;sensor_type;location;lat;lon;timestamp;pressure;altitude;pressure_sealevel;temperature;humidity
7802;BME280;3945;48.952;9.506;2023-03-14T00:01:45;96368.88;;;10.10;100.00
7802;BME280;3945;48.952;9.506;2023-03-14T00:04:11;96362.25;;;10.12;100.00
7802;BME280;3945;48.952;9.506;2023-03-14T00:06:37;96367.56;;;10.12;100.00
7802;BME280;3945;48.952;9.506;2023-03-14T00:09:04;96367.03;;;10.10;100.00
7802;BME280;3945;48.952;9.506;2023-03-14T00:11:30;96352.66;;;10.11;100.00
7802;BME280;3945;48.952;9.506;2023-03-14T00:13:58;96324.22;;;10.12;100.00
7802;BME280;3945;48.952;9.506;2023-03-14T00:16:25;96336.72;;;10.11;100.00
7802;BME280;3945;48.952;9.506;2023-03-14T00:18:51;96327.97;;;10.11;100.00
7802;BME280;3945;48.952;9.506;2023-03-14T00:21:18;96325.31;;;10.11;100.00
7802;BME280;3945;48.952;9.506;2023-03-14T00:23:44;96336.72;;;10.11;100.00
7802;BME280;3945;48.952;9.506;2023-03-14T00:26:11;96335.88;;;10.16;100.00
7802;BME280;3945;48.952;9.506;2023-03-14T00:28:38;96317.28;;;10.16;100.00
7802;BME280;3945;48.952;9.506;2023-03-14T00:31:06;96307.19;;;10.18;99.89
7802;BME280;3945;48.952;9.506;2023-03-14T00:33:33;96314.09;;;10.19;99.75
7802;BME280;3945;48.952;9.506;2023-03-14T00:36:00;96313.84;;;10.21;99.35
7802;BME280;3945;48.952;9.506;2023-03-14T00:38:27;96285.88;;;10.23;99.24
7802;BME280;3945;48.952;9.506;2023-03-14T00:40:53;96281.38;;;10.24;99.12
7802;BME280;3945;48.952;9.506;2023-03-14T00:43:20;96278.72;;;10.24;99.77
7802;BME280;3945;48.952;9.506;2023-03-14T00:45:47;96290.13;;;10.24;99.54
7802;BME280;3945;48.952;9.506;2023-03-14T00:48:15;96302.88;;;10.27;99.61
7802;BME280;3945;48.952;9.506;2023-03-14T00:50:41;96302.63;;;10.29;99.81
7802;BME280;3945;48.952;9.506;2023-03-14T00:53:07;96307.09;;;10.33;99.15
7802;BME280;3945;48.952;9.506;2023-03-14T00:55:35;96306.00;;;10.34;98.70
7802;BME280;3945;48.952;9.506;2023-03-14T00:58:02;96300.44;;;10.36;98.15
7802;BME280;3945;48.952;9.506;2023-03-14T01:00:28;96302.50;;;10.39;98.32
7802;BME280;3945;48.952;9.506;2023-03-14T01:02:54;96301.97;;;10.42;97.90
7802;BME280;3945;48.952;9.506;2023-03-14T01:05:22;96301.97;;;10.42;97.93
7802;BME280;3945;48.952;9.506;2023-03-14T01:07:48;96311.56;;;10.38;98.32
7802;BME280;3945;48.952;9.506;2023-03-14T01:10:15;96310.47;;;10.39;98.60
7802;BME280;3945;48.952;9.506;2023-03-14T01:12:41;96314.53;;;10.36;98.71
7802;BME280;3945;48.952;9.506;2023-03-14T01:15:08;96317.13;;;10.41;98.13
7802;BME280;3945;48.952;9.506;2023-03-14T01:17:34;96316.31;;;10.41;97.71
7802;BME280;3945;48.952;9.506;2023-03-14T01:20:03;96313.13;;;10.44;97.65
7802;BME280;3945;48.952;9.506;2023-03-14T01:22:35;96299.81;;;10.44;97.09
7802;BME280;3945;48.952;9.506;2023-03-14T01:25:03;96297.97;;;10.44;97.25
7802;BME280;3945;48.952;9.506;2023-03-14T01:27:30;96292.66;;;10.44;97.43
7802;BME280;3945;48.952;9.506;2023-03-14T01:29:56;96301.69;;;10.43;96.68
7802;BME280;3945;48.952;9.506;2023-03-14T01:32:22;96300.91;;;10.43;96.08
7802;BME280;3945;48.952;9.506;2023-03-14T01:34:50;96286.81;;;10.42;95.87
7802;BME280;3945;48.952;9.506;2023-03-14T01:37:16;96274.78;;;10.45;95.34
7802;BME280;3945;48.952;9.506;2023-03-14T01:39:44;96264.47;;;10.43;95.64
7802;BME280;3945;48.952;9.506;2023-03-14T01:42:12;96253.53;;;10.45;95.32
7802;BME280;3945;48.952;9.506;2023-03-14T01:44:48;96246.06;;;10.47;94.56
7802;BME280;3945;48.952;9.506;2023-03-14T01:47:15;96235.16;;;10.48;94.76
7802;BME280;3945;48.952;9.506;2023-03-14T01:49:41;96227.38;;;10.52;93.48
7802;BME280;3945;48.952;9.506;2023-03-14T01:52:09;96203.41;;;10.57;92.25
7802;BME280;3945;48.952;9.506;2023-03-14T01:54:37;96190.34;;;10.61;91.05
7802;BME280;3945;48.952;9.506;2023-03-14T01:57:06;96196.72;;;10.60;91.38
7802;BME280;3945;48.952;9.506;2023-03-14T01:59:34;96170.09;;;10.65;91.31
7802;BME280;3945;48.952;9.506;2023-03-14T02:02:01;96165.56;;;10.65;90.67
7802;BME280;3945;48.952;9.506;2023-03-14T02:04:31;96170.09;;;10.65;90.88
7802;BME280;3945;48.952;9.506;2023-03-14T02:07:00;96175.91;;;10.67;90.63
7802;BME280;3945;48.952;9.506;2023-03-14T02:09:28;96180.72;;;10.65;90.57
7802;BME280;3945;48.952;9.506;2023-03-14T02:11:55;96191.66;;;10.63;91.27
7802;BME280;3945;48.952;9.506;2023-03-14T02:14:26;96193.78;;;10.61;91.13
7802;BME280;3945;48.952;9.506;2023-03-14T02:16:54;96194.06;;;10.60;90.88
7802;BME280;3945;48.952;9.506;2023-03-14T02:19:23;96202.03;;;10.60;90.95
7802;BME280;3945;48.952;9.506;2023-03-14T02:21:54;96195.44;;;10.57;91.05
7802;BME280;3945;48.952;9.506;2023-03-14T02:24:25;96198.91;;;10.57;91.03
7802;BME280;3945;48.952;9.506;2023-03-14T02:27:02;96184.28;;;10.55;91.86
7802;BME280;3945;48.952;9.506;2023-03-14T02:29:28;96186.44;;;10.53;91.36
7802;BME280;3945;48.952;9.506;2023-03-14T02:31:55;96185.94;;;10.51;91.63
7802;BME280;3945;48.952;9.506;2023-03-14T02:34:21;96189.38;;;10.51;91.39
7802;BME280;3945;48.952;9.506;2023-03-14T02:36:48;96178.22;;;10.49;91.06
7802;BME280;3945;48.952;9.506;2023-03-14T02:39:15;96164.41;;;10.47;90.53
7802;BME280;3945;48.952;9.506;2023-03-14T02:41:45;96173.47;;;10.46;90.52
7802;BME280;3945;48.952;9.506;2023-03-14T02:44:15;96155.88;;;10.50;89.85
7802;BME280;3945;48.952;9.506;2023-03-14T02:46:41;96160.91;;;10.52;89.73
7802;BME280;3945;48.952;9.506;2023-03-14T02:49:08;96149.78;;;10.50;90.73
7802;BME280;3945;48.952;9.506;2023-03-14T02:51:36;96143.16;;;10.47;90.61
7802;BME280;3945;48.952;9.506;2023-03-14T02:54:03;96157.25;;;10.48;90.21
7802;BME280;3945;48.952;9.506;2023-03-14T02:56:29;96148.72;;;10.51;90.30
7802;BME280;3945;48.952;9.506;2023-03-14T02:58:56;96156.38;;;10.52;89.39
7802;BME280;3945;48.952;9.506;2023-03-14T03:01:24;96132.75;;;10.51;89.82
7802;BME280;3945;48.952;9.506;2023-03-14T03:03:50;96150.34;;;10.47;90.16
7802;BME280;3945;48.952;9.506;2023-03-14T03:06:16;96141.06;;;10.44;90.48
7802;BME280;3945;48.952;9.506;2023-03-14T03:08:42;96128.53;;;10.45;89.73
7802;BME280;3945;48.952;9.506;2023-03-14T03:11:09;96144.81;;;10.43;89.66
7802;BME280;3945;48.952;9.506;2023-03-14T03:13:35;96130.72;;;10.43;89.64
7802;BME280;3945;48.952;9.506;2023-03-14T03:16:02;96129.41;;;10.40;89.54
7802;BME280;3945;48.952;9.506;2023-03-14T03:18:29;96124.31;;;10.44;89.34
7802;BME280;3945;48.952;9.506;2023-03-14T03:20:59;96122.50;;;10.39;89.53
7802;BME280;3945;48.952;9.506;2023-03-14T03:23:25;96139.25;;;10.40;89.21
7802;BME280;3945;48.952;9.506;2023-03-14T03:25:51;96123.28;;;10.40;89.16
7802;BME280;3945;48.952;9.506;2023-03-14T03:28:18;96119.56;;;10.41;88.59
7802;BME280;3945;48.952;9.506;2023-03-14T03:30:44;96121.44;;;10.40;89.09
7802;BME280;3945;48.952;9.506;2023-03-14T03:33:11;96117.16;;;10.44;88.00
7802;BME280;3945;48.952;9.506;2023-03-14T03:35:43;96108.38;;;10.44;87.42
7802;BME280;3945;48.952;9.506;2023-03-14T03:38:09;96115.31;;;10.40;88.68
7802;BME280;3945;48.952;9.506;2023-03-14T03:40:36;96112.09;;;10.43;87.57
7802;BME280;3945;48.952;9.506;2023-03-14T03:43:03;96120.88;;;10.43;87.14
7802;BME280;3945;48.952;9.506;2023-03-14T03:45:29;96117.91;;;10.45;87.33
7802;BME280;3945;48.952;9.506;2023-03-14T03:47:56;96106.78;;;10.43;87.19
7802;BME280;3945;48.952;9.506;2023-03-14T03:50:22;96105.13;;;10.47;86.60
7802;BME280;3945;48.952;9.506;2023-03-14T03:52:50;96105.13;;;10.47;86.65
7802;BME280;3945;48.952;9.506;2023-03-14T03:55:16;96101.94;;;10.45;86.71
7802;BME280;3945;48.952;9.506;2023-03-14T03:57:43;96100.94;;;10.41;87.25
7802;BME280;3945;48.952;9.506;2023-03-14T04:00:09;96098.91;;;10.33;88.37
7802;BME280;3945;48.952;9.506;2023-03-14T04:02:37;96104.81;;;10.30;88.40
7802;BME280;3945;48.952;9.506;2023-03-14T04:05:03;96103.78;;;10.26;88.32
7802;BME280;3945;48.952;9.506;2023-03-14T04:07:31;96096.31;;;10.28;86.71
7802;BME280;3945;48.952;9.506;2023-03-14T04:09:58;96094.19;;;10.30;86.68
7802;BME280;3945;48.952;9.506;2023-03-14T04:12:24;96094.94;;;10.30;86.88
7802;BME280;3945;48.952;9.506;2023-03-14T04:14:51;96085.91;;;10.31;85.98
7802;BME280;3945;48.952;9.506;2023-03-14T04:17:17;96098.19;;;10.27;86.27
7802;BME280;3945;48.952;9.506;2023-03-14T04:19:43;96088.88;;;10.30;85.56
7802;BME280;3945;48.952;9.506;2023-03-14T04:22:10;96101.38;;;10.29;86.01
7802;BME280;3945;48.952;9.506;2023-03-14T04:24:36;96101.41;;;10.24;85.84
7802;BME280;3945;48.952;9.506;2023-03-14T04:27:04;96103.06;;;10.20;85.97
7802;BME280;3945;48.952;9.506;2023-03-14T04:29:30;96103.06;;;10.20;85.45
7802;BME280;3945;48.952;9.506;2023-03-14T04:31:56;96098.56;;;10.15;85.58
7802;BME280;3945;48.952;9.506;2023-03-14T04:34:23;96100.97;;;10.12;85.53
7802;BME280;3945;48.952;9.506;2023-03-14T04:36:49;96113.47;;;10.11;85.28
7802;BME280;3945;48.952;9.506;2023-03-14T04:39:15;96103.13;;;10.10;84.99
7802;BME280;3945;48.952;9.506;2023-03-14T04:41:41;96102.63;;;10.08;85.24
7802;BME280;3945;48.952;9.506;2023-03-14T04:44:09;96094.66;;;10.08;84.69
7802;BME280;3945;48.952;9.506;2023-03-14T04:46:35;96097.88;;;10.05;84.76
7802;BME280;3945;48.952;9.506;2023-03-14T04:49:02;96090.91;;;10.09;84.27
7802;BME280;3945;48.952;9.506;2023-03-14T04:51:28;96093.81;;;10.12;83.32
7802;BME280;3945;48.952;9.506;2023-03-14T04:53:54;96085.03;;;10.12;83.07
7802;BME280;3945;48.952;9.506;2023-03-14T04:56:21;96080.00;;;10.10;83.88
7802;BME280;3945;48.952;9.506;2023-03-14T04:58:47;96073.09;;;10.09;83.24
7802;BME280;3945;48.952;9.506;2023-03-14T05:01:15;96073.69;;;10.06;83.61
7802;BME280;3945;48.952;9.506;2023-03-14T05:03:42;96072.88;;;10.06;82.79
7802;BME280;3945;48.952;9.506;2023-03-14T05:06:09;96055.91;;;10.02;82.17
7802;BME280;3945;48.952;9.506;2023-03-14T05:08:35;96054.34;;;10.01;82.17
7802;BME280;3945;48.952;9.506;2023-03-14T05:11:01;96048.25;;;10.00;82.30
7802;BME280;3945;48.952;9.506;2023-03-14T05:13:28;96046.66;;;9.99;81.70
7802;BME280;3945;48.952;9.506;2023-03-14T05:16:02;96042.13;;;10.00;81.85
7802;BME280;3945;48.952;9.506;2023-03-14T05:18:30;96044.28;;;9.98;82.25
7802;BME280;3945;48.952;9.506;2023-03-14T05:20:56;96039.50;;;9.95;82.33
7802;BME280;3945;48.952;9.506;2023-03-14T05:23:22;96046.22;;;9.92;82.85
7802;BME280;3945;48.952;9.506;2023-03-14T05:25:49;96029.47;;;9.92;82.06
7802;BME280;3945;48.952;9.506;2023-03-14T05:28:15;96028.09;;;9.94;81.82
7802;BME280;3945;48.952;9.506;2023-03-14T05:30:41;96025.44;;;9.94;81.49
7802;BME280;3945;48.952;9.506;2023-03-14T05:33:08;96029.19;;;9.93;81.81
7802;BME280;3945;48.952;9.506;2023-03-14T05:35:35;96022.84;;;9.89;82.59
7802;BME280;3945;48.952;9.506;2023-03-14T05:38:02;96022.84;;;9.89;81.81
7802;BME280;3945;48.952;9.506;2023-03-14T05:40:28;96014.09;;;9.89;82.65
7802;BME280;3945;48.952;9.506;2023-03-14T05:42:54;96016.75;;;9.89;82.49
7802;BME280;3945;48.952;9.506;2023-03-14T05:45:21;96013.09;;;9.85;82.77
7802;BME280;3945;48.952;9.506;2023-03-14T05:47:47;96014.69;;;9.80;83.08
7802;BME280;3945;48.952;9.506;2023-03-14T05:50:13;96011.84;;;9.77;82.76
7802;BME280;3945;48.952;9.506;2023-03-14T05:52:41;96015.28;;;9.77;82.59
7802;BME280;3945;48.952;9.506;2023-03-14T05:55:07;96017.16;;;9.77;82.60
7802;BME280;3945;48.952;9.506;2023-03-14T05:57:34;96012.63;;;9.77;82.63
7802;BME280;3945;48.952;9.506;2023-03-14T06:00:00;96011.84;;;9.77;82.92
7802;BME280;3945;48.952;9.506;2023-03-14T06:02:26;96006.78;;;9.75;82.27
7802;BME280;3945;48.952;9.506;2023-03-14T06:04:52;95996.16;;;9.75;83.12
7802;BME280;3945;48.952;9.506;2023-03-14T06:07:19;95998.03;;;9.75;82.94
7802;BME280;3945;48.952;9.506;2023-03-14T06:09:46;95996.97;;;9.76;82.83
7802;BME280;3945;48.952;9.506;2023-03-14T06:12:13;96000.63;;;9.80;82.52
7802;BME280;3945;48.952;9.506;2023-03-14T06:14:39;95995.56;;;9.84;82.65
7802;BME280;3945;48.952;9.506;2023-03-14T06:17:05;95987.78;;;9.87;82.62
7802;BME280;3945;48.952;9.506;2023-03-14T06:19:32;95994.69;;;9.88;81.96
7802;BME280;3945;48.952;9.506;2023-03-14T06:21:58;95995.50;;;9.89;82.34
7802;BME280;3945;48.952;9.506;2023-03-14T06:24:24;95992.56;;;9.90;81.29
7802;BME280;3945;48.952;9.506;2023-03-14T06:26:52;96000.53;;;9.90;81.52
7802;BME280;3945;48.952;9.506;2023-03-14T06:29:18;95992.28;;;9.92;81.52
7802;BME280;3945;48.952;9.506;2023-03-14T06:31:44;96005.28;;;9.93;80.66
7802;BME280;3945;48.952;9.506;2023-03-14T06:34:11;96002.91;;;9.92;81.05
7802;BME280;3945;48.952;9.506;2023-03-14T06:36:37;96001.59;;;9.89;81.41
7802;BME280;3945;48.952;9.506;2023-03-14T06:39:03;96000.75;;;9.94;80.92
7802;BME280;3945;48.952;9.506;2023-03-14T06:41:30;96000.75;;;9.94;80.14
7802;BME280;3945;48.952;9.506;2023-03-14T06:43:59;95998.03;;;9.99;80.15
7802;BME280;3945;48.952;9.506;2023-03-14T06:46:25;95999.91;;;9.98;80.29
7802;BME280;3945;48.952;9.506;2023-03-14T06:48:51;95990.28;;;10.02;79.30
7802;BME280;3945;48.952;9.506;2023-03-14T06:51:18;96000.06;;;10.07;79.13
7802;BME280;3945;48.952;9.506;2023-03-14T06:53:44;95997.13;;;10.08;78.47
7802;BME280;3945;48.952;9.506;2023-03-14T06:56:11;95992.28;;;10.10;79.05
7802;BME280;3945;48.952;9.506;2023-03-14T06:58:37;95988.81;;;10.15;78.67
7802;BME280;3945;48.952;9.506;2023-03-14T07:01:05;96005.16;;;10.27;78.26
7802;BME280;3945;48.952;9.506;2023-03-14T07:03:32;95998.31;;;10.40;77.94
7802;BME280;3945;48.952;9.506;2023-03-14T07:05:58;95992.78;;;10.55;77.49
7802;BME280;3945;48.952;9.506;2023-03-14T07:08:24;96002.34;;;10.75;76.02
7802;BME280;3945;48.952;9.506;2023-03-14T07:10:51;96002.63;;;10.92;75.95
7802;BME280;3945;48.952;9.506;2023-03-14T07:13:17;95995.91;;;11.13;74.43
7802;BME280;3945;48.952;9.506;2023-03-14T07:15:44;96008.44;;;11.26;73.58
7802;BME280;3945;48.952;9.506;2023-03-14T07:18:12;95996.63;;;11.32;73.15
7802;BME280;3945;48.952;9.506;2023-03-14T07:20:38;95999.13;;;11.43;73.10
7802;BME280;3945;48.952;9.506;2023-03-14T07:23:05;96001.09;;;11.37;73.74
7802;BME280;3945;48.952;9.506;2023-03-14T07:25:31;95996.72;;;11.27;74.77
7802;BME280;3945;48.952;9.506;2023-03-14T07:27:57;96002.56;;;11.29;74.56
7802;BME280;3945;48.952;9.506;2023-03-14T07:30:24;95998.00;;;11.30;74.84
7802;BME280;3945;48.952;9.506;2023-03-14T07:32:50;96000.50;;;11.40;73.82
7802;BME280;3945;48.952;9.506;2023-03-14T07:35:18;96006.16;;;11.52;73.93
7802;BME280;3945;48.952;9.506;2023-03-14T07:37:44;96007.13;;;11.56;74.16
7802;BME280;3945;48.952;9.506;2023-03-14T07:40:11;96006.16;;;11.52;74.92
7802;BME280;3945;48.952;9.506;2023-03-14T07:42:40;96003.09;;;11.45;73.98
7802;BME280;3945;48.952;9.506;2023-03-14T07:45:06;96002.28;;;11.45;73.53
7802;BME280;3945;48.952;9.506;2023-03-14T07:47:33;96000.69;;;11.44;74.65
7802;BME280;3945;48.952;9.506;2023-03-14T07:49:59;96001.69;;;11.48;73.60
7802;BME280;3945;48.952;9.506;2023-03-14T07:52:27;96001.41;;;11.63;73.98
7802;BME280;3945;48.952;9.506;2023-03-14T07:54:54;96002.75;;;11.79;72.84
7802;BME280;3945;48.952;9.506;2023-03-14T07:57:20;95998.50;;;11.78;72.51
7802;BME280;3945;48.952;9.506;2023-03-14T07:59:46;96007.00;;;11.80;72.95
7802;BME280;3945;48.952;9.506;2023-03-14T08:02:13;96000.78;;;11.85;73.30
7802;BME280;3945;48.952;9.506;2023-03-14T08:04:39;95990.91;;;11.85;72.17
7802;BME280;3945;48.952;9.506;2023-03-14T08:07:06;95990.91;;;11.85;72.42
7802;BME280;3945;48.952;9.506;2023-03-14T08:09:33;95986.06;;;11.87;73.49
7802;BME280;3945;48.952;9.506;2023-03-14T08:12:00;95990.09;;;11.98;73.29
7802;BME280;3945;48.952;9.506;2023-03-14T08:14:26;95989.00;;;12.13;72.87
7802;BME280;3945;48.952;9.506;2023-03-14T08:16:54;95980.88;;;12.18;71.01
7802;BME280;3945;48.952;9.506;2023-03-14T08:19:20;95985.63;;;12.21;71.12
7802;BME280;3945;48.952;9.506;2023-03-14T08:21:46;95988.91;;;12.32;72.38
7802;BME280;3945;48.952;9.506;2023-03-14T08:24:13;95991.50;;;12.59;71.23
7802;BME280;3945;48.952;9.506;2023-03-14T08:26:40;95985.69;;;12.79;70.47
7802;BME280;3945;48.952;9.506;2023-03-14T08:29:07;95978.19;;;13.04;69.93
7802;BME280;3945;48.952;9.506;2023-03-14T08:31:34;95984.38;;;13.13;68.79
7802;BME280;3945;48.952;9.506;2023-03-14T08:34:00;95987.16;;;13.08;68.37
7802;BME280;3945;48.952;9.506;2023-03-14T08:36:27;95988.06;;;13.03;68.70
7802;BME280;3945;48.952;9.506;2023-03-14T08:38:53;95986.78;;;13.01;69.66
7802;BME280;3945;48.952;9.506;2023-03-14T08:41:20;95989.22;;;13.11;68.18
7802;BME280;3945;48.952;9.506;2023-03-14T08:43:47;95989.47;;;13.23;67.73
7802;BME280;3945;48.952;9.506;2023-03-14T08:46:14;95985.94;;;13.36;67.50
7802;BME280;3945;48.952;9.506;2023-03-14T08:48:40;95982.19;;;13.68;67.77
7802;BME280;3945;48.952;9.506;2023-03-14T08:51:07;95993.28;;;13.92;66.58
7802;BME280;3945;48.952;9.506;2023-03-14T08:53:33;95989.03;;;14.00;65.80
7802;BME280;3945;48.952;9.506;2023-03-14T08:55:59;95989.13;;;13.78;65.73
7802;BME280;3945;48.952;9.506;2023-03-14T08:58:26;95993.44;;;13.56;65.84
7802;BME280;3945;48.952;9.506;2023-03-14T09:00:53;95991.13;;;13.33;66.30
7802;BME280;3945;48.952;9.506;2023-03-14T09:03:19;95998.53;;;13.13;66.37
7802;BME280;3945;48.952;9.506;2023-03-14T09:05:48;96010.81;;;13.01;67.06
7802;BME280;3945;48.952;9.506;2023-03-14T09:08:14;95993.66;;;12.93;66.66
7802;BME280;3945;48.952;9.506;2023-03-14T09:10:40;96018.38;;;12.85;67.72
7802;BME280;3945;48.952;9.506;2023-03-14T09:13:07;96019.59;;;12.79;68.76
7802;BME280;3945;48.952;9.506;2023-03-14T09:15:33;96015.84;;;12.80;68.99
7802;BME280;3945;48.952;9.506;2023-03-14T09:18:01;96020.88;;;12.81;67.69
7802;BME280;3945;48.952;9.506;2023-03-14T09:20:27;96018.81;;;12.78;68.05
7802;BME280;3945;48.952;9.506;2023-03-14T09:22:53;96014.38;;;12.74;66.62
7802;BME280;3945;48.952;9.506;2023-03-14T09:25:20;96017.06;;;12.74;67.09
7802;BME280;3945;48.952;9.506;2023-03-14T09:27:46;96031.78;;;12.71;66.80
7802;BME280;3945;48.952;9.506;2023-03-14T09:30:12;96031.00;;;12.71;66.89
7802;BME280;3945;48.952;9.506;2023-03-14T09:32:39;96034.06;;;12.64;67.36
7802;BME280;3945;48.952;9.506;2023-03-14T09:35:07;96039.53;;;12.59;68.90
7802;BME280;3945;48.952;9.506;2023-03-14T09:37:33;96033.31;;;12.50;68.77
7802;BME280;3945;48.952;9.506;2023-03-14T09:40:00;96039.34;;;12.42;69.34
7802;BME280;3945;48.952;9.506;2023-03-14T09:42:29;96026.00;;;12.42;68.62
7802;BME280;3945;48.952;9.506;2023-03-14T09:44:56;96045.47;;;12.42;69.25
7802;BME280;3945;48.952;9.506;2023-03-14T09:47:23;96043.09;;;12.41;69.15
7802;BME280;3945;48.952;9.506;2023-03-14T09:49:49;96041.50;;;12.40;70.01
7802;BME280;3945;48.952;9.506;2023-03-14T09:52:19;96063.19;;;12.38;70.23
7802;BME280;3945;48.952;9.506;2023-03-14T09:54:49;96066.72;;;12.34;71.62
7802;BME280;3945;48.952;9.506;2023-03-14T09:57:17;96066.81;;;12.29;71.21
7802;BME280;3945;48.952;9.506;2023-03-14T09:59:44;96067.91;;;12.28;71.38
7802;BME280;3945;48.952;9.506;2023-03-14T10:02:15;96068.50;;;12.25;70.83
7802;BME280;3945;48.952;9.506;2023-03-14T10:04:42;96073.75;;;12.30;71.56
7802;BME280;3945;48.952;9.506;2023-03-14T10:07:11;96063.75;;;12.35;72.16
7802;BME280;3945;48.952;9.506;2023-03-14T10:09:42;96068.19;;;12.40;72.06
7802;BME280;3945;48.952;9.506;2023-03-14T10:12:08;96055.75;;;12.35;70.36
7802;BME280;3945;48.952;9.506;2023-03-14T10:14:36;96059.72;;;12.38;71.36
7802;BME280;3945;48.952;9.506;2023-03-14T10:17:06;96048.34;;;12.46;71.14
7802;BME280;3945;48.952;9.506;2023-03-14T10:19:33;96061.66;;;12.60;71.47
7802;BME280;3945;48.952;9.506;2023-03-14T10:22:01;96051.44;;;12.75;70.36
7802;BME280;3945;48.952;9.506;2023-03-14T10:24:28;96035.78;;;12.82;69.41
7802;BME280;3945;48.952;9.506;2023-03-14T10:26:59;96043.56;;;12.93;69.16
7802;BME280;3945;48.952;9.506;2023-03-14T10:29:27;96038.16;;;13.20;67.95
7802;BME280;3945;48.952;9.506;2023-03-14T10:31:54;96038.81;;;13.48;67.38
7802;BME280;3945;48.952;9.506;2023-03-14T10:34:22;96018.06;;;13.76;68.19
7802;BME280;3945;48.952;9.506;2023-03-14T10:36:52;96041.03;;;14.16;64.56
7802;BME280;3945;48.952;9.506;2023-03-14T10:39:22;96035.72;;;14.25;65.26
7802;BME280;3945;48.952;9.506;2023-03-14T10:41:52;96026.88;;;14.16;63.31
7802;BME280;3945;48.952;9.506;2023-03-14T10:44:21;96039.50;;;13.93;64.42
7802;BME280;3945;48.952;9.506;2023-03-14T10:46:55;96019.47;;;13.73;64.65
7802;BME280;3945;48.952;9.506;2023-03-14T10:49:23;96028.97;;;13.57;65.09
7802;BME280;3945;48.952;9.506;2023-03-14T10:51:52;96030.13;;;13.42;65.36
7802;BME280;3945;48.952;9.506;2023-03-14T10:54:19;96033.88;;;13.33;65.60
7802;BME280;3945;48.952;9.506;2023-03-14T10:56:46;96042.28;;;13.26;66.73
7802;BME280;3945;48.952;9.506;2023-03-14T10:59:23;96026.69;;;13.19;66.03
7802;BME280;3945;48.952;9.506;2023-03-14T11:01:51;96039.63;;;13.12;66.17
7802;BME280;3945;48.952;9.506;2023-03-14T11:04:25;96031.25;;;13.05;67.84
7802;BME280;3945;48.952;9.506;2023-03-14T11:06:58;96045.03;;;12.99;68.71
7802;BME280;3945;48.952;9.506;2023-03-14T11:09:29;96044.38;;;12.93;68.24
7802;BME280;3945;48.952;9.506;2023-03-14T11:12:01;96047.53;;;12.95;69.09
7802;BME280;3945;48.952;9.506;2023-03-14T11:14:33;96049.03;;;12.87;68.25
7802;BME280;3945;48.952;9.506;2023-03-14T11:17:01;96055.59;;;12.81;68.41
7802;BME280;3945;48.952;9.506;2023-03-14T11:19:44;96063.09;;;12.79;69.13
7802;BME280;3945;48.952;9.506;2023-03-14T11:22:20;96068.44;;;12.79;68.36
7802;BME280;3945;48.952;9.506;2023-03-14T11:24:49;96076.25;;;12.76;69.00
7802;BME280;3945;48.952;9.506;2023-03-14T11:27:20;96078.16;;;12.62;68.12
7802;BME280;3945;48.952;9.506;2023-03-14T11:29:51;96074.63;;;12.52;68.20
7802;BME280;3945;48.952;9.506;2023-03-14T11:32:23;96088.25;;;12.37;69.11
7802;BME280;3945;48.952;9.506;2023-03-14T11:34:52;96079.88;;;12.30;69.72
7802;BME280;3945;48.952;9.506;2023-03-14T11:37:21;96100.41;;;12.16;70.07
7802;BME280;3945;48.952;9.506;2023-03-14T11:39:53;96087.16;;;12.11;71.54
7802;BME280;3945;48.952;9.506;2023-03-14T11:42:22;96086.28;;;12.02;71.39
7802;BME280;3945;48.952;9.506;2023-03-14T11:44:51;96087.75;;;11.94;72.03
7802;BME280;3945;48.952;9.506;2023-03-14T11:47:20;96085.66;;;11.91;72.12
7802;BME280;3945;48.952;9.506;2023-03-14T11:49:50;96081.50;;;11.85;72.44
7802;BME280;3945;48.952;9.506;2023-03-14T11:52:18;96094.44;;;11.78;71.69
7802;BME280;3945;48.952;9.506;2023-03-14T11:54:47;96088.59;;;11.76;72.02
7802;BME280;3945;48.952;9.506;2023-03-14T11:57:16;96097.16;;;11.73;73.71
7802;BME280;3945;48.952;9.506;2023-03-14T11:59:45;96094.50;;;11.73;74.80
7802;BME280;3945;48.952;9.506;2023-03-14T12:02:17;96101.75;;;11.67;77.59
7802;BME280;3945;48.952;9.506;2023-03-14T12:04:50;96106.56;;;11.52;78.34
7802;BME280;3945;48.952;9.506;2023-03-14T12:07:19;96108.41;;;11.38;79.01
7802;BME280;3945;48.952;9.506;2023-03-14T12:09:46;96110.34;;;11.32;77.33
7802;BME280;3945;48.952;9.506;2023-03-14T12:12:16;96107.66;;;11.32;78.13
7802;BME280;3945;48.952;9.506;2023-03-14T12:14:45;96124.94;;;11.34;77.87
7802;BME280;3945;48.952;9.506;2023-03-14T12:17:19;96116.44;;;11.32;78.46
7802;BME280;3945;48.952;9.506;2023-03-14T12:19:46;96129.13;;;11.22;81.98
7802;BME280;3945;48.952;9.506;2023-03-14T12:22:18;96127.22;;;11.09;81.96
7802;BME280;3945;48.952;9.506;2023-03-14T12:24:48;96144.38;;;10.98;82.87
7802;BME280;3945;48.952;9.506;2023-03-14T12:29:57;96141.00;;;10.73;83.55
7802;BME280;3945;48.952;9.506;2023-03-14T12:32:26;96158.06;;;10.67;83.71
7802;BME280;3945;48.952;9.506;2023-03-14T12:34:52;96158.94;;;10.63;84.07
7802;BME280;3945;48.952;9.506;2023-03-14T12:37:20;96159.28;;;10.56;85.57
7802;BME280;3945;48.952;9.506;2023-03-14T12:39:53;96166.47;;;10.55;85.86
7802;BME280;3945;48.952;9.506;2023-03-14T12:42:23;96174.97;;;10.57;86.38
7802;BME280;3945;48.952;9.506;2023-03-14T12:45:13;96193.69;;;10.47;89.27
7802;BME280;3945;48.952;9.506;2023-03-14T12:47:51;96222.56;;;10.30;91.89
7802;BME280;3945;48.952;9.506;2023-03-14T12:50:19;96220.31;;;10.13;93.81
7802;BME280;3945;48.952;9.506;2023-03-14T12:52:53;96245.03;;;10.09;94.21
7802;BME280;3945;48.952;9.506;2023-03-14T12:55:24;96275.97;;;10.00;92.50
7802;BME280;3945;48.952;9.506;2023-03-14T12:57:57;96288.88;;;9.77;90.57
7802;BME280;3945;48.952;9.506;2023-03-14T13:00:30;96277.03;;;9.60;89.34
7802;BME280;3945;48.952;9.506;2023-03-14T13:03:01;96291.25;;;9.35;88.11
7802;BME280;3945;48.952;9.506;2023-03-14T13:05:29;96330.59;;;9.18;88.20
7802;BME280;3945;48.952;9.506;2023-03-14T13:08:02;96326.94;;;8.93;86.19
7802;BME280;3945;48.952;9.506;2023-03-14T13:10:29;96349.78;;;8.79;87.36
7802;BME280;3945;48.952;9.506;2023-03-14T13:12:57;96354.03;;;8.65;86.14
7802;BME280;3945;48.952;9.506;2023-03-14T13:15:29;96357.25;;;8.62;85.76
7802;BME280;3945;48.952;9.506;2023-03-14T13:17:59;96356.69;;;8.65;83.76
7802;BME280;3945;48.952;9.506;2023-03-14T13:20:30;96378.16;;;8.84;84.69
7802;BME280;3945;48.952;9.506;2023-03-14T13:22:57;96371.50;;;8.96;80.83
7802;BME280;3945;48.952;9.506;2023-03-14T13:25:23;96386.38;;;8.97;78.62
7802;BME280;3945;48.952;9.506;2023-03-14T13:27:52;96396.16;;;9.02;79.97